Weather observations for the past three days for
Barksdale Air Force Base
Metric (Imperial)
Date Time (cdt) Wind (kph) Vis. (km) Weather Sky Cond. Temperature (ºC) Relative Humidity Wind Chill (°C) Heat Index (°C) Pressure Precipitation (cm)
Air Dwpt 6 hour altimeter (cm) sea level (mb) 1 hr 3 hr 6 hr
Max. Min.
31 05:55 Calm 16.09 Fair CLR 24.7 21.2 81% 25 76.2 1016.1
31 04:55 SE 6 16.09 Fair CLR 25.2 21.3 79% 26 76.17 1015.7
31 03:55 SE 9 16.09 Partly Cloudy SCT100 25.6 21 76% 27 76.15 1015.4
31 02:55 S 11 16.09 Fair CLR 26.2 20.9 73% 28 76.17 1015.7
31 01:55 SE 13 16.09 A Few Clouds FEW100 26.5 20.5 70% 28 76.17 1015.7
31 00:55 SE 9 16.09 Partly Cloudy SCT100 26.7 20.7 35.1 26.6 70% 28 76.17 1015.7
30 23:55 SE 9 16.09 Fair CLR 27.6 20.9 67% 30 76.15 1015.4
30 22:55 SE 9 16.09 Fair CLR 28.6 21.3 65% 31 76.15 1015.4
30 21:55 E 11 16.09 Fair CLR 29.7 20.5 58% 32 76.1 1014.7
30 20:55 E 9 16.09 Fair CLR 30.3 20.2 55% 32 76.05 1014.1
30 19:55 E 7 16.09 Fair CLR 31.9 19.5 48% 34 76 1013.4
30 18:55 SE 7 16.09 Fair CLR 35.2 17.8 37.8 35.2 36% 36 76 1013.4
30 17:55 SE 15 16.09 Fair CLR 36.8 17.8 33% 38 76 1013.4
30 16:55 E 9 16.09 Fair CLR 37.5 17.5 31% 39 76 1013.4
30 15:55 E 7 16.09 Fair CLR 37.5 16.9 30% 38 76.05 1014.0
30 14:55 NW 6 16.09 A Few Clouds FEW065 36.7 18.7 35% 39 76.1 1014.7
30 13:55 S 11 16.09 A Few Clouds FEW090 36.3 20.1 39% 39 76.2 1016.1
30 12:55 S 6 16.09 Fair CLR 35.9 20.5 36 23.6 41% 39 76.23 1016.4
30 10:55 Calm 16.09 Mostly Cloudy BKN065 32 22.1 56% 36 76.28 1017.1
30 09:55 S 6 16.09 Fair CLR 30.7 23.1 64% 35 76.3 1017.5
30 08:55 S 7 16.09 Fair CLR 28.2 22.2 70% 31 76.33 1017.8
30 07:55 SE 7 16.09 Fair CLR 25.5 21.3 78% 27 76.28 1017.1
30 06:55 Calm 16.09 Fair CLR 23.7 20.4 25.7 23.5 82% 76.25 1016.8
30 05:55 SE 9 16.09 Fair CLR 24.1 20.2 79% 25 76.2 1016.1
30 04:55 S 7 16.09 A Few Clouds FEW060 25.2 20.4 75% 26 76.2 1016.1
30 03:55 SE 9 16.09 Fair CLR 24.9 20.3 76% 26 76.2 1016.1
30 02:55 SE 7 16.09 Fair CLR 25 20.2 75% 26 76.2 1016.1
30 01:55 Calm 16.09 Fair CLR 25.4 19.7 71% 26 76.23 1016.4
30 00:55 SE 6 16.09 Fair CLR 25 19.8 34.3 25 73% 26 76.23 1016.4
29 23:55 SE 7 16.09 Fair CLR 26.3 19.9 68% 28 76.2 1016.1
29 22:55 E 6 16.09 Fair CLR 28.4 19.6 59% 30 76.2 1016.1
29 21:55 E 6 16.09 Fair CLR 27.7 18.4 57% 29 76.17 1015.8
29 20:55 E 9 16.09 Fair CLR 29.7 18.1 50% 31 76.12 1015.1
29 19:55 E 7 16.09 Fair CLR 31.3 18.3 46% 32 76.1 1014.8
29 18:55 E 11 16.09 Fair CLR 34.4 17.6 37.7 34.4 37% 35 76.07 1014.4
29 17:55 E 6 16.09 Fair CLR 35.4 15.6 31% 35 76.07 1014.4
29 16:55 Calm 16.09 Fair CLR 37.3 14.5 26% 37 76.07 1014.4
29 15:55 NW 6 16.09 A Few Clouds FEW085 37 16 29% 37 76.12 1015.1
29 14:55 S 6 16.09 A Few Clouds FEW070 36.6 17.7 33% 38 76.17 1015.7
29 13:55 Calm 16.09 A Few Clouds FEW070 36 18.5 36% 38 76.25 1016.8
29 12:55 Calm 16.09 Fair CLR 34.7 20.6 34.9 23.5 44% 38 76.3 1017.4
29 11:55 E 6 16.09 Fair CLR 33.4 21.2 49% 37 76.35 1018.1
29 10:55 Calm 16.09 Fair CLR 31.5 21.6 56% 35 76.35 1018.1
29 09:55 E 7 16.09 Fair CLR 29.2 21.4 63% 32 76.38 1018.5
29 07:55 Calm 16.09 Fair CLR 25.2 21.1 78% 26 76.35 1018.1
29 06:55 SE 6 16.09 Fair CLR 23.4 20.1 26.5 23 82% 76.3 1017.5
29 05:55 Calm 16.09 A Few Clouds FEW075 24.2 20.7 81% 25 76.3 1017.4
29 04:55 Calm 16.09 Fair CLR 24.5 21.4 83% 25 76.28 1017.1
29 03:55 Calm 14.48 Fair CLR 25.4 21.5 79% 27 76.28 1017.1
29 02:55 Calm 16.09 Fair CLR 25.7 21.3 77% 27 76.28 1017.1
29 01:55 NE 7 16.09 Fair CLR 25.5 21.8 80% 27 76.28 1017.1
29 00:55 E 7 16.09 Fair CLR 26.3 21.7 34.7 26.3 76% 28 76.25 1016.8
28 23:55 Calm 16.09 Fair CLR 26.7 21.6 74% 29 76.25 1016.8
28 22:55 Calm 16.09 Fair CLR 27.5 21.5 70% 30 76.23 1016.4
28 21:55 E 11 16.09 Fair CLR 29.1 21 62% 31 76.17 1015.7
28 20:55 E 13 16.09 Fair CLR 29.6 21.5 62% 32 76.12 1015.1
28 19:55 E 15 16.09 Fair CLR 31.9 21.1 53% 35 76.1 1014.7
28 18:55 E 6 16.09 Fair CLR 34.8 19.9 37.6 34.8 42% 37 76.07 1014.4
28 17:55 Calm 16.09 Fair CLR 36 18.5 36% 38 76.07 1014.4
28 16:55 E 11 16.09 A Few Clouds FEW110 36.7 19.1 36% 39 76.07 1014.4
28 15:55 E 15 16.09 Mostly Cloudy BKN070 35.9 19.3 38% 38 76.12 1015.1
28 14:55 SE 13 16.09 A Few Clouds FEW100 37.2 19.6 36% 40 76.2 1016.1
28 13:55 E 9 16.09 Fair CLR 36.5 19.8 38% 39 76.25 1016.8
28 12:55 SE 6 16.09 Fair CLR 35.8 19.6 35.9 23.8 39% 38 76.3 1017.4
28 11:55 SE 7 16.09 Fair CLR 34.3 21.3 47% 38 76.35 1018.1
28 10:55 NE 6 16.09 Fair CLR 33.5 22.2 52% 38 76.35 1018.1
28 09:55 Calm 16.09 Fair CLR 31.1 24.4 68% 37 76.33 1017.8
28 08:55 NW 6 16.09 Fair CLR 28.7 24.4 78% 33 76.3 1017.5
28 07:55 Calm 16.09 Fair CLR 25.8 23.6 88% 27 76.3 1017.5
28 06:55 Calm 16.09 Fair CLR 24.1 22.7 25.9 23.8 92% 24 76.25 1016.8
Date Time (cdt) Wind (kph) Vis. (km) Weather Sky Cond. Air Dwpt Max. Min. Relative Humidity Wind Chill (°C) Heat Index (°C) altimeter (cm) sea level (mb) 1 hr 3 hr 6 hr
6 hour
Temperature (ºC) Pressure Precipitation (cm)